| time (UTC) | temp F | wind direction | speed MPH | gust MPH | rain 1hr in | rain 24hr in | rain mn in | humidity % | barometer mb |
| 20260504191530 | 86 | 0.0 | 0.0 | 0.00 | 0.00 | 0.00 | 46 | 1015.4 | |
| 20260504191030 | 85 | 0.0 | 0.0 | 0.00 | 0.00 | 0.00 | 48 | 1015.5 | |
| 20260504190529 | 84 | 0.0 | 0.0 | 0.00 | 0.00 | 0.00 | 52 | 1015.6 | |
| 20260504190030 | 83 | 0.0 | 0.0 | 0.00 | 0.00 | 0.00 | 50 | 1015.7 | |
| 20260504185523 | 83 | 0.0 | 0.0 | 0.00 | 0.00 | 0.00 | 53 | 1015.9 | |
| 20260504185022 | 84 | 0.0 | 0.0 | 0.00 | 0.00 | 0.00 | 48 | 1015.8 | |
| 20260504184530 | 84 | 0.0 | 0.0 | 0.00 | 0.00 | 0.00 | 52 | 1016.0 | |
| 20260504184019 | 84 | 0.0 | 0.0 | 0.00 | 0.00 | 0.00 | 53 | 1016.0 | |
| 20260504183518 | 83 | 0.0 | 0.0 | 0.00 | 0.00 | 0.00 | 51 | 1016.2 | |
| 20260504183016 | 85 | 0.0 | 0.0 | 0.00 | 0.00 | 0.00 | 49 | 1016.4 | |
| 20260504182514 | 86 | 0.0 | 0.0 | 0.00 | 0.00 | 0.00 | 51 | 1016.5 | |
| 20260504182013 | 84 | 0.0 | 0.0 | 0.00 | 0.00 | 0.00 | 48 | 1016.8 | |
| 20260504181513 | 85 | 0.0 | 0.0 | 0.00 | 0.00 | 0.00 | 49 | 1016.7 | |
| 20260504181010 | 86 | 0.0 | 0.0 | 0.00 | 0.00 | 0.00 | 48 | 1016.9 | |
| 20260504180510 | 85 | 0.0 | 0.0 | 0.00 | 0.00 | 0.00 | 47 | 1016.9 | |
| 20260504180008 | 86 | 0.0 | 0.0 | 0.00 | 0.00 | 0.00 | 48 | 1016.9 | |
| 20260504175507 | 85 | 0.0 | 0.0 | 0.00 | 0.00 | 0.00 | 49 | 1016.8 | |
| 20260504175004 | 86 | 0.0 | 0.0 | 0.00 | 0.00 | 0.00 | 55 | 1016.9 | |
| 20260504174503 | 85 | 0.0 | 0.0 | 0.00 | 0.00 | 0.00 | 49 | 1017.0 | |
| 20260504174003 | 85 | 0.0 | 0.0 | 0.00 | 0.00 | 0.00 | 49 | 1017.1 | |
| 20260504173502 | 84 | 0.0 | 0.0 | 0.00 | 0.00 | 0.00 | 52 | 1017.1 | |
| 20260504173004 | 85 | 0.0 | 0.0 | 0.00 | 0.00 | 0.00 | 51 | 1017.1 | |
| 20260504172559 | 84 | 0.0 | 0.0 | 0.00 | 0.00 | 0.00 | 52 | 1017.2 | |
| 20260504172058 | 84 | 0.0 | 0.0 | 0.00 | 0.00 | 0.00 | 52 | 1017.1 | |
| 20260504171557 | 85 | 0.0 | 0.0 | 0.00 | 0.00 | 0.00 | 51 | 1017.3 | |
| 20260504171055 | 85 | 0.0 | 0.0 | 0.00 | 0.00 | 0.00 | 50 | 1017.3 | |
| 20260504170553 | 85 | 0.0 | 0.0 | 0.00 | 0.00 | 0.00 | 49 | 1017.4 | |
| 20260504151020 | 77 | 0.0 | 0.0 | 0.00 | 0.00 | 0.00 | 61 | 1018.3 | |
| 20260504150519 | 76 | 0.0 | 0.0 | 0.00 | 0.00 | 0.00 | 61 | 1018.3 | |
| 20260504141003 | 75 | 0.0 | 0.0 | 0.00 | 0.00 | 0.00 | 69 | 1018.1 | |
| 20260504140504 | 75 | 0.0 | 0.0 | 0.00 | 0.00 | 0.00 | 69 | 1018.1 | |
| 20260504130544 | 69 | 0.0 | 0.0 | 0.00 | 0.00 | 0.00 | 81 | 1017.8 | |
| 20260504110509 | 61 | 0.0 | 0.0 | 0.00 | 0.00 | 0.00 | 88 | 1017.1 | |
| 20260504100551 | 61 | 0.0 | 0.0 | 0.00 | 0.00 | 0.00 | 88 | 1016.9 | |
| 20260504081536 | 63 | 0.0 | 0.0 | 0.00 | 0.00 | 0.00 | 87 | 1016.6 | |
| 20260504081018 | 64 | 0.0 | 0.0 | 0.00 | 0.00 | 0.00 | 87 | 1016.6 | |
| 20260504080517 | 64 | 0.0 | 0.0 | 0.00 | 0.00 | 0.00 | 87 | 1016.7 | |
| 20260504050525 | 66 | 0.0 | 0.0 | 0.00 | 0.01 | 0.00 | 85 | 1017.2 | |
| 20260504050023 | 66 | 0.0 | 0.0 | 0.00 | 0.01 | 0.00 | 85 | 1017.3 | |
| 20260504045521 | 66 | 0.0 | 0.0 | 0.00 | 0.01 | 0.00 | 85 | 1017.8 | |
| 20260504045021 | 66 | 0.0 | 0.0 | 0.00 | 0.01 | 0.00 | 85 | 1018.0 | |
| 20260504044521 | 66 | 0.0 | 0.0 | 0.00 | 0.01 | 0.00 | 85 | 1018.2 | |
| 20260504044018 | 66 | 0.0 | 0.0 | 0.00 | 0.01 | 0.00 | 85 | 1018.2 | |
| 20260504043516 | 66 | 0.0 | 0.0 | 0.00 | 0.01 | 0.00 | 85 | 1018.4 | |
| 20260504043029 | 66 | 0.0 | 0.0 | 0.00 | 0.01 | 0.00 | 84 | 1018.5 | |
| 20260504042512 | 66 | 0.0 | 0.0 | 0.00 | 0.01 | 0.00 | 84 | 1018.4 | |
| 20260504042014 | 66 | 0.0 | 0.0 | 0.00 | 0.01 | 0.00 | 84 | 1018.4 | |
| 20260504041510 | 67 | 0.0 | 0.0 | 0.00 | 0.01 | 0.00 | 84 | 1018.3 | |
| 20260504041008 | 67 | 0.0 | 0.0 | 0.00 | 0.01 | 0.00 | 84 | 1018.4 | |
| 20260504040508 | 67 | 0.0 | 0.0 | 0.00 | 0.01 | 0.00 | 83 | 1018.6 | |
| 20260504040007 | 67 | 0.0 | 0.0 | 0.00 | 0.01 | 0.00 | 82 | 1018.6 | |
| 20260504035605 | 67 | 0.0 | 0.0 | 0.00 | 0.01 | 0.01 | 82 | 1018.6 | |
| 20260504035004 | 68 | 0.0 | 0.0 | 0.00 | 0.01 | 0.01 | 81 | 1018.6 | |
| 20260504034501 | 68 | 0.0 | 0.0 | 0.00 | 0.01 | 0.01 | 81 | 1018.5 | |
| 20260504034100 | 68 | 0.0 | 0.0 | 0.00 | 0.01 | 0.01 | 81 | 1018.5 | |
| 20260504033558 | 68 | 0.0 | 0.0 | 0.00 | 0.01 | 0.01 | 81 | 1018.4 | |
| 20260504033102 | 68 | 0.0 | 0.0 | 0.00 | 0.01 | 0.01 | 81 | 1018.4 | |
| 20260504032556 | 68 | 0.0 | 0.0 | 0.00 | 0.01 | 0.01 | 80 | 1018.4 | |
| 20260504032054 | 69 | 0.0 | 0.0 | 0.00 | 0.01 | 0.01 | 80 | 1018.4 | |
| 20260504031553 | 69 | 0.0 | 0.0 | 0.00 | 0.01 | 0.01 | 80 | 1018.3 | |
| 20260504031051 | 69 | 0.0 | 0.0 | 0.00 | 0.01 | 0.01 | 80 | 1018.2 | |
| 20260504030550 | 69 | 0.0 | 0.0 | 0.00 | 0.01 | 0.01 | 79 | 1018.1 | |
| 20260504030048 | 69 | 0.0 | 0.0 | 0.00 | 0.01 | 0.01 | 79 | 1018.1 | |
| 20260504025547 | 69 | 0.0 | 0.0 | 0.00 | 0.02 | 0.01 | 79 | 1018.2 | |
| 20260504025048 | 70 | 0.0 | 0.0 | 0.00 | 0.02 | 0.01 | 79 | 1018.3 | |
| 20260504024548 | 70 | 0.0 | 0.0 | 0.00 | 0.02 | 0.01 | 78 | 1018.1 | |
| 20260504024046 | 70 | 0.0 | 0.0 | 0.00 | 0.02 | 0.01 | 78 | 1018.1 | |
| 20260504023541 | 70 | 0.0 | 0.0 | 0.00 | 0.02 | 0.01 | 78 | 1018.2 | |
| 20260504023040 | 70 | 0.0 | 0.0 | 0.00 | 0.02 | 0.01 | 77 | 1018.2 | |
| 20260504022538 | 70 | 0.0 | 0.0 | 0.00 | 0.02 | 0.01 | 77 | 1017.8 | |
| 20260504022038 | 70 | 0.0 | 0.0 | 0.00 | 0.02 | 0.01 | 78 | 1017.9 | |
| 20260504021536 | 70 | 0.0 | 0.0 | 0.00 | 0.02 | 0.01 | 78 | 1017.8 | |
| 20260504021037 | 71 | 0.0 | 0.0 | 0.00 | 0.02 | 0.01 | 77 | 1017.7 | |
| 20260504020532 | 71 | 0.0 | 0.0 | 0.00 | 0.02 | 0.01 | 78 | 1017.7 | |
| 20260504020043 | 71 | 0.0 | 0.0 | 0.00 | 0.02 | 0.01 | 78 | 1017.6 | |
| 20260504015530 | 71 | 0.0 | 0.0 | 0.00 | 0.02 | 0.01 | 78 | 1017.6 | |
| 20260504015029 | 71 | 0.0 | 0.0 | 0.00 | 0.02 | 0.01 | 77 | 1017.6 | |
| 20260504014537 | 71 | 0.0 | 0.0 | 0.00 | 0.02 | 0.01 | 78 | 1017.5 | |
| 20260504014025 | 71 | 0.0 | 0.0 | 0.00 | 0.02 | 0.01 | 78 | 1017.5 | |
| 20260504013523 | 71 | 0.0 | 0.0 | 0.00 | 0.02 | 0.01 | 77 | 1017.5 | |
| 20260504013033 | 71 | 0.0 | 0.0 | 0.00 | 0.02 | 0.01 | 77 | 1017.4 | |
| 20260504012521 | 72 | 0.0 | 0.0 | 0.00 | 0.02 | 0.01 | 77 | 1017.4 | |
| 20260504012020 | 72 | 0.0 | 0.0 | 0.00 | 0.02 | 0.01 | 76 | 1017.3 | |
| 20260504011521 | 72 | 0.0 | 0.0 | 0.00 | 0.02 | 0.01 | 76 | 1017.2 | |
| 20260504011016 | 72 | 0.0 | 0.0 | 0.00 | 0.02 | 0.01 | 76 | 1017.2 | |
| 20260504010516 | 72 | 0.0 | 0.0 | 0.00 | 0.02 | 0.01 | 76 | 1017.1 | |
| 20260504010014 | 72 | 0.0 | 0.0 | 0.00 | 0.02 | 0.01 | 76 | 1016.9 | |
| 20260504005513 | 72 | 0.0 | 0.0 | 0.00 | 0.02 | 0.01 | 76 | 1017.0 | |
| 20260504005014 | 73 | 0.0 | 0.0 | 0.00 | 0.02 | 0.01 | 76 | 1016.9 | |
| 20260504004510 | 73 | 0.0 | 0.0 | 0.00 | 0.02 | 0.01 | 75 | 1016.8 | |
| 20260504004008 | 73 | 0.0 | 0.0 | 0.00 | 0.02 | 0.01 | 75 | 1016.8 | |
| 20260504003507 | 73 | 0.0 | 0.0 | 0.00 | 0.02 | 0.01 | 75 | 1016.6 | |
| 20260504003007 | 73 | 0.0 | 0.0 | 0.00 | 0.02 | 0.01 | 75 | 1016.4 | |
| 20260504002506 | 73 | 0.0 | 0.0 | 0.00 | 0.02 | 0.01 | 74 | 1016.3 | |
| 20260504002002 | 74 | 0.0 | 0.0 | 0.00 | 0.02 | 0.01 | 74 | 1016.3 | |
| 20260504001501 | 74 | 0.0 | 0.0 | 0.00 | 0.02 | 0.01 | 73 | 1016.3 | |
| 20260504001102 | 74 | 0.0 | 0.0 | 0.00 | 0.02 | 0.01 | 72 | 1016.3 | |
| 20260504000559 | 74 | 0.0 | 0.0 | 0.00 | 0.02 | 0.01 | 72 | 1016.3 | |
| 20260504000108 | 75 | 0.0 | 0.0 | 0.00 | 0.02 | 0.01 | 71 | 1016.1 | |
| 20260503235559 | 75 | 0.0 | 0.0 | 0.00 | 0.02 | 0.01 | 71 | 1016.2 | |
| 20260503235054 | 75 | 0.0 | 0.0 | 0.00 | 0.02 | 0.01 | 70 | 1016.1 | |
| 20260503234558 | 75 | 0.0 | 0.0 | 0.00 | 0.02 | 0.01 | 69 | 1016.0 | |
| 20260503234051 | 76 | 0.0 | 0.0 | 0.00 | 0.02 | 0.01 | 69 | 1016.0 | |
| 20260503233549 | 76 | 0.0 | 0.0 | 0.00 | 0.02 | 0.01 | 69 | 1016.0 | |
| 20260503233048 | 76 | 0.0 | 0.0 | 0.00 | 0.02 | 0.01 | 68 | 1016.0 | |
| 20260503232547 | 76 | 0.0 | 0.0 | 0.00 | 0.02 | 0.01 | 68 | 1015.9 | |
| 20260503232045 | 77 | 0.0 | 0.0 | 0.00 | 0.02 | 0.01 | 67 | 1015.8 | |
| 20260503231543 | 77 | 0.0 | 0.0 | 0.00 | 0.02 | 0.01 | 66 | 1015.8 | |
| 20260503231042 | 78 | 0.0 | 0.0 | 0.00 | 0.02 | 0.01 | 67 | 1015.8 | |
| 20260503230542 | 78 | 0.0 | 0.0 | 0.00 | 0.02 | 0.01 | 65 | 1015.9 | |
| 20260503230053 | 78 | 0.0 | 0.0 | 0.00 | 0.02 | 0.01 | 65 | 1015.8 | |
| 20260503225537 | 78 | 0.0 | 0.0 | 0.00 | 0.05 | 0.01 | 66 | 1015.8 | |
| 20260503225036 | 77 | 0.0 | 0.0 | 0.00 | 0.05 | 0.01 | 68 | 1015.8 | |
| 20260503224536 | 77 | 0.0 | 0.0 | 0.00 | 0.05 | 0.01 | 67 | 1015.8 | |
| 20260503224034 | 77 | 0.0 | 0.0 | 0.00 | 0.05 | 0.01 | 66 | 1015.8 | |
| 20260503223533 | 77 | 0.0 | 0.0 | 0.00 | 0.05 | 0.01 | 65 | 1015.8 | |
| 20260503223031 | 78 | 0.0 | 0.0 | 0.00 | 0.05 | 0.01 | 63 | 1015.8 | |
| 20260503222528 | 79 | 0.0 | 0.0 | 0.00 | 0.05 | 0.01 | 63 | 1015.8 | |
| 20260503222027 | 79 | 0.0 | 0.0 | 0.00 | 0.05 | 0.01 | 62 | 1015.8 | |
| 20260503221526 | 79 | 0.0 | 0.0 | 0.00 | 0.05 | 0.01 | 64 | 1016.0 | |
| 20260503221025 | 78 | 0.0 | 0.0 | 0.00 | 0.05 | 0.01 | 64 | 1015.9 | |
| 20260503220523 | 78 | 0.0 | 0.0 | 0.00 | 0.05 | 0.01 | 66 | 1015.8 | |
| 20260503220022 | 79 | 0.0 | 0.0 | 0.00 | 0.05 | 0.01 | 64 | 1015.9 | |
| 20260503215520 | 80 | 0.0 | 0.0 | 0.00 | 0.07 | 0.01 | 61 | 1015.8 | |
| 20260503215019 | 80 | 0.0 | 0.0 | 0.00 | 0.07 | 0.01 | 65 | 1015.8 | |
| 20260503214519 | 79 | 0.0 | 0.0 | 0.00 | 0.07 | 0.01 | 62 | 1015.9 | |
| 20260503214016 | 80 | 0.0 | 0.0 | 0.00 | 0.07 | 0.01 | 61 | 1015.8 | |
| 20260503213514 | 81 | 0.0 | 0.0 | 0.00 | 0.07 | 0.01 | 63 | 1015.8 | |
| 20260503213013 | 81 | 0.0 | 0.0 | 0.00 | 0.07 | 0.01 | 61 | 1015.9 | |
| 20260503212511 | 81 | 0.0 | 0.0 | 0.00 | 0.07 | 0.01 | 61 | 1015.9 | |
| 20260503212010 | 81 | 0.0 | 0.0 | 0.00 | 0.07 | 0.01 | 61 | 1015.9 | |
| 20260503211509 | 81 | 0.0 | 0.0 | 0.00 | 0.07 | 0.01 | 62 | 1015.8 | |
| 20260503211007 | 81 | 0.0 | 0.0 | 0.00 | 0.07 | 0.01 | 62 | 1015.8 | |
| 20260503210506 | 80 | 0.0 | 0.0 | 0.00 | 0.07 | 0.01 | 61 | 1015.9 | |
| 20260503210005 | 79 | 0.0 | 0.0 | 0.00 | 0.07 | 0.01 | 65 | 1016.0 | |
| 20260503205503 | 80 | 0.0 | 0.0 | 0.00 | 0.11 | 0.01 | 63 | 1016.1 | |
| 20260503205003 | 83 | 0.0 | 0.0 | 0.00 | 0.11 | 0.01 | 58 | 1016.0 | |
| 20260503204601 | 82 | 0.0 | 0.0 | 0.00 | 0.11 | 0.01 | 58 | 1016.2 | |
| 20260503204059 | 82 | 0.0 | 0.0 | 0.00 | 0.11 | 0.01 | 63 | 1016.3 | |
| 20260503203557 | 81 | 0.0 | 0.0 | 0.00 | 0.11 | 0.01 | 61 | 1016.3 | |
| 20260503203112 | 81 | 0.0 | 0.0 | 0.00 | 0.11 | 0.01 | 61 | 1016.4 | |
| 20260503202554 | 82 | 0.0 | 0.0 | 0.00 | 0.11 | 0.01 | 59 | 1016.4 | |
| 20260503202053 | 83 | 0.0 | 0.0 | 0.00 | 0.11 | 0.01 | 61 | 1016.4 | |
| 20260503201552 | 83 | 0.0 | 0.0 | 0.00 | 0.11 | 0.01 | 60 | 1016.4 | |
| 20260503201051 | 83 | 0.0 | 0.0 | 0.00 | 0.11 | 0.01 | 61 | 1016.5 | |
| 20260503200548 | 81 | 0.0 | 0.0 | 0.00 | 0.11 | 0.01 | 63 | 1016.5 | |
| 20260503200047 | 82 | 0.0 | 0.0 | 0.00 | 0.11 | 0.01 | 60 | 1016.6 | |
| 20260503195546 | 82 | 0.0 | 0.0 | 0.00 | 0.45 | 0.01 | 58 | 1016.6 | |
| 20260503195044 | 82 | 0.0 | 0.0 | 0.00 | 0.45 | 0.01 | 64 | 1016.7 | |
| 20260503194545 | 83 | 0.0 | 0.0 | 0.00 | 0.45 | 0.01 | 59 | 1016.7 | |
| 20260503194042 | 83 | 0.0 | 0.0 | 0.00 | 0.45 | 0.01 | 61 | 1016.9 | |
| 20260503193540 | 83 | 0.0 | 0.0 | 0.00 | 0.45 | 0.01 | 62 | 1017.1 | |
| 20260503193039 | 81 | 0.0 | 0.0 | 0.00 | 0.45 | 0.01 | 64 | 1017.2 | |
| 20260503192537 | 80 | 0.0 | 0.0 | 0.00 | 0.45 | 0.01 | 63 | 1017.2 | |
| 20260503192036 | 80 | 0.0 | 0.0 | 0.00 | 0.45 | 0.01 | 63 | 1017.3 |